Ana Sayfa
METAR-TAF:

METAR-TAF

Havaalanları :

Aydın Çıldır Havalimanı

Aydın, Türkiye

Enlem: 37-48-54N, Boylam: 27-53-21E, yükseklik: 31 m

METAR: eksik

Saat: 17:36 (14:36 UTC)

Tahmin

Rapor saat 10:40 UTC de 3 saat ve 56 dakika önce yapıldı.
Ayın 21'si saat 12 UTC'den ayın 21'si saat 21 UTC'ye kadar geçerli Tahmin
Rüzgar değişken yönden 2 kt
Görüş mesafesi 10 km veya daha fazla
3500 ft yükseklikte az bulutlu
Dönüşüyor
ayın 21'si saat 14 UTC'den ayın 21'si saat 17 UTC'ye kadar
Görüş mesafesi 10 km veya daha fazla
1500 m altında bulut yok ve kümülonimbus yok
Geçici
ayın 21'si saat 14 UTC'den ayın 21'si saat 18 UTC'ye kadar
Rüzgar kuzeydan 15 kt

TAF: LTBD 211040Z 2112/2121 VRB02KT 9999 FEW035 BECMG 2114/2117 CAVOK TEMPO 2114/2118 36015KT

4.000'den fazla havaalanı için hava durumu gözlemleri ve tahminleri (METAR ve TAF raporları).

Kullanılabilir istasyonlar harita üzerinde sarı ve kırmızı noktalarla gösterilir.

İstasyonun adını görmek için fareyi noktanın üzerinde gezdirin.

Sonrasında hava gözlem ve tahminlerini görmek için tıklayın.

Haritayı değiştirmek için: yaklaştırmak için siyah artı işaretli yeşil düğmeye ve uzaklaştırmak için de eksi işaretli düğmeye hızla tıklayın; bitişik haritalar için yeşil okları kullanın.


METAR-TAF: